sensor_id;sensor_type;location;lat;lon;timestamp;pressure;altitude;pressure_sealevel;temperature;humidity
24486;BME280;13449;49.374;8.584;2022-07-29T00:01:02;100247.72;;;23.18;47.52
24486;BME280;13449;49.374;8.584;2022-07-29T00:03:29;100245.78;;;23.19;47.30
24486;BME280;13449;49.374;8.584;2022-07-29T00:05:55;100229.66;;;23.16;47.97
24486;BME280;13449;49.374;8.584;2022-07-29T00:08:22;100224.63;;;23.13;48.61
24486;BME280;13449;49.374;8.584;2022-07-29T00:10:49;100226.00;;;23.10;49.18
24486;BME280;13449;49.374;8.584;2022-07-29T00:13:16;100205.97;;;23.08;50.20
24486;BME280;13449;49.374;8.584;2022-07-29T00:15:43;100210.97;;;23.06;50.89
24486;BME280;13449;49.374;8.584;2022-07-29T00:18:09;100203.19;;;22.98;51.74
24486;BME280;13449;49.374;8.584;2022-07-29T00:20:35;100200.69;;;23.01;52.22
24486;BME280;13449;49.374;8.584;2022-07-29T00:23:02;100203.72;;;23.00;52.15
24486;BME280;13449;49.374;8.584;2022-07-29T00:25:31;100202.88;;;22.99;52.47
24486;BME280;13449;49.374;8.584;2022-07-29T00:28:01;100204.00;;;23.03;52.34
24486;BME280;13449;49.374;8.584;2022-07-29T00:30:29;100209.59;;;23.03;53.02
24486;BME280;13449;49.374;8.584;2022-07-29T00:32:56;100219.03;;;23.02;52.84
24486;BME280;13449;49.374;8.584;2022-07-29T00:35:24;100222.66;;;22.98;53.61
24486;BME280;13449;49.374;8.584;2022-07-29T00:38:12;100221.25;;;22.90;53.96
24486;BME280;13449;49.374;8.584;2022-07-29T00:40:41;100224.53;;;22.87;54.32
24486;BME280;13449;49.374;8.584;2022-07-29T00:43:12;100229.28;;;22.87;53.27
24486;BME280;13449;49.374;8.584;2022-07-29T00:45:42;100219.78;;;22.78;54.76
24486;BME280;13449;49.374;8.584;2022-07-29T00:48:09;100222.56;;;22.78;54.14
24486;BME280;13449;49.374;8.584;2022-07-29T00:50:36;100223.69;;;22.77;55.13
24486;BME280;13449;49.374;8.584;2022-07-29T00:53:06;100227.25;;;22.72;54.59
24486;BME280;13449;49.374;8.584;2022-07-29T00:55:34;100225.03;;;22.69;55.43
24486;BME280;13449;49.374;8.584;2022-07-29T00:58:01;100228.94;;;22.68;55.15
24486;BME280;13449;49.374;8.584;2022-07-29T01:00:28;100233.56;;;22.57;56.02
24486;BME280;13449;49.374;8.584;2022-07-29T01:02:55;100218.81;;;22.52;56.26
24486;BME280;13449;49.374;8.584;2022-07-29T01:05:24;100219.13;;;22.55;56.73
24486;BME280;13449;49.374;8.584;2022-07-29T01:08:17;100219.59;;;22.42;57.24
24486;BME280;13449;49.374;8.584;2022-07-29T01:10:45;100227.44;;;22.50;56.44
24486;BME280;13449;49.374;8.584;2022-07-29T01:13:14;100224.97;;;22.59;55.94
24486;BME280;13449;49.374;8.584;2022-07-29T01:15:52;100221.88;;;22.50;56.51
24486;BME280;13449;49.374;8.584;2022-07-29T01:18:30;100215.75;;;22.48;56.81
24486;BME280;13449;49.374;8.584;2022-07-29T01:24:04;100206.03;;;22.51;57.32
24486;BME280;13449;49.374;8.584;2022-07-29T01:26:49;100195.16;;;22.44;57.74
24486;BME280;13449;49.374;8.584;2022-07-29T01:29:25;100204.34;;;22.50;57.56
24486;BME280;13449;49.374;8.584;2022-07-29T01:32:07;100197.97;;;22.54;57.67
24486;BME280;13449;49.374;8.584;2022-07-29T01:34:58;100196.31;;;22.53;57.87
24486;BME280;13449;49.374;8.584;2022-07-29T01:37:43;100200.22;;;22.52;57.91
24486;BME280;13449;49.374;8.584;2022-07-29T01:40:22;100186.50;;;22.36;58.80
24486;BME280;13449;49.374;8.584;2022-07-29T01:42:53;100186.75;;;22.29;59.35
24486;BME280;13449;49.374;8.584;2022-07-29T01:48:20;100186.22;;;22.32;59.37
24486;BME280;13449;49.374;8.584;2022-07-29T01:53:36;100185.59;;;22.15;60.12
24486;BME280;13449;49.374;8.584;2022-07-29T01:56:06;100197.84;;;22.19;59.04
24486;BME280;13449;49.374;8.584;2022-07-29T01:58:40;100187.47;;;22.09;60.30
24486;BME280;13449;49.374;8.584;2022-07-29T02:01:13;100199.47;;;22.15;58.87
24486;BME280;13449;49.374;8.584;2022-07-29T02:03:45;100196.41;;;22.16;59.75
24486;BME280;13449;49.374;8.584;2022-07-29T02:06:16;100195.56;;;22.11;60.65
24486;BME280;13449;49.374;8.584;2022-07-29T02:08:45;100193.56;;;22.06;61.21
24486;BME280;13449;49.374;8.584;2022-07-29T02:11:15;100189.63;;;21.97;61.24
24486;BME280;13449;49.374;8.584;2022-07-29T02:13:46;100184.72;;;21.73;62.31
24486;BME280;13449;49.374;8.584;2022-07-29T02:16:14;100188.56;;;21.66;62.40
24486;BME280;13449;49.374;8.584;2022-07-29T02:18:44;100185.78;;;21.66;62.99
24486;BME280;13449;49.374;8.584;2022-07-29T02:21:21;100197.06;;;21.55;63.35
24486;BME280;13449;49.374;8.584;2022-07-29T02:23:51;100191.69;;;21.43;64.12
24486;BME280;13449;49.374;8.584;2022-07-29T02:26:23;100195.50;;;21.37;64.26
24486;BME280;13449;49.374;8.584;2022-07-29T02:28:52;100192.03;;;21.20;64.80
24486;BME280;13449;49.374;8.584;2022-07-29T02:31:24;100188.94;;;21.16;64.37
24486;BME280;13449;49.374;8.584;2022-07-29T02:33:53;100195.28;;;21.12;64.65
24486;BME280;13449;49.374;8.584;2022-07-29T02:36:22;100195.53;;;21.10;65.05
24486;BME280;13449;49.374;8.584;2022-07-29T02:38:52;100200.91;;;20.95;65.57
24486;BME280;13449;49.374;8.584;2022-07-29T02:41:27;100193.16;;;20.97;65.04
24486;BME280;13449;49.374;8.584;2022-07-29T02:44:08;100205.03;;;20.93;65.25
24486;BME280;13449;49.374;8.584;2022-07-29T02:46:38;100205.44;;;20.80;65.74
24486;BME280;13449;49.374;8.584;2022-07-29T02:52:02;100205.34;;;20.69;66.09
24486;BME280;13449;49.374;8.584;2022-07-29T02:57:31;100206.47;;;20.52;67.41
24486;BME280;13449;49.374;8.584;2022-07-29T03:00:22;100206.94;;;20.44;67.87
24486;BME280;13449;49.374;8.584;2022-07-29T03:02:52;100214.47;;;20.48;66.97
24486;BME280;13449;49.374;8.584;2022-07-29T03:05:20;100210.97;;;20.36;67.79
24486;BME280;13449;49.374;8.584;2022-07-29T03:08:03;100213.50;;;20.38;67.67
24486;BME280;13449;49.374;8.584;2022-07-29T03:10:33;100198.91;;;20.25;68.01
24486;BME280;13449;49.374;8.584;2022-07-29T03:13:03;100211.47;;;20.28;68.52
24486;BME280;13449;49.374;8.584;2022-07-29T03:15:31;100218.13;;;20.32;66.89
24486;BME280;13449;49.374;8.584;2022-07-29T03:17:59;100212.94;;;20.36;66.43
24486;BME280;13449;49.374;8.584;2022-07-29T03:20:26;100214.03;;;20.35;66.47
24486;BME280;13449;49.374;8.584;2022-07-29T03:22:55;100216.72;;;20.30;66.68
24486;BME280;13449;49.374;8.584;2022-07-29T03:25:21;100224.50;;;20.33;65.13
24486;BME280;13449;49.374;8.584;2022-07-29T03:27:48;100216.81;;;20.35;66.16
24486;BME280;13449;49.374;8.584;2022-07-29T03:30:15;100214.22;;;20.28;66.12
24486;BME280;13449;49.374;8.584;2022-07-29T03:32:48;100198.25;;;20.18;67.00
24486;BME280;13449;49.374;8.584;2022-07-29T03:35:20;100203.22;;;20.16;66.55
24486;BME280;13449;49.374;8.584;2022-07-29T03:37:47;100210.19;;;20.19;66.54
24486;BME280;13449;49.374;8.584;2022-07-29T03:40:22;100204.22;;;20.10;66.55
24486;BME280;13449;49.374;8.584;2022-07-29T03:42:51;100212.53;;;20.10;66.34
24486;BME280;13449;49.374;8.584;2022-07-29T03:45:21;100209.63;;;20.00;67.07
24486;BME280;13449;49.374;8.584;2022-07-29T03:47:55;100212.06;;;19.97;67.03
24486;BME280;13449;49.374;8.584;2022-07-29T03:50:29;100219.28;;;19.98;65.98
24486;BME280;13449;49.374;8.584;2022-07-29T03:52:57;100219.84;;;20.00;65.53
24486;BME280;13449;49.374;8.584;2022-07-29T03:55:24;100236.22;;;20.01;63.92
24486;BME280;13449;49.374;8.584;2022-07-29T03:57:51;100234.03;;;20.03;63.43
24486;BME280;13449;49.374;8.584;2022-07-29T04:00:18;100220.50;;;20.07;64.24
24486;BME280;13449;49.374;8.584;2022-07-29T04:02:48;100216.19;;;19.94;64.64
24486;BME280;13449;49.374;8.584;2022-07-29T04:05:18;100235.81;;;19.76;63.37
24486;BME280;13449;49.374;8.584;2022-07-29T04:07:47;100230.38;;;19.81;63.92
24486;BME280;13449;49.374;8.584;2022-07-29T04:10:17;100223.59;;;19.72;64.74
24486;BME280;13449;49.374;8.584;2022-07-29T04:12:58;100229.03;;;19.67;63.77
24486;BME280;13449;49.374;8.584;2022-07-29T04:15:26;100229.28;;;19.65;64.44
24486;BME280;13449;49.374;8.584;2022-07-29T04:17:57;100239.25;;;19.50;64.16
24486;BME280;13449;49.374;8.584;2022-07-29T04:20:28;100229.63;;;19.52;65.17
24486;BME280;13449;49.374;8.584;2022-07-29T04:22:55;100234.22;;;19.47;64.98
24486;BME280;13449;49.374;8.584;2022-07-29T04:25:24;100246.63;;;19.44;64.26
24486;BME280;13449;49.374;8.584;2022-07-29T04:27:53;100236.91;;;19.42;65.19
24486;BME280;13449;49.374;8.584;2022-07-29T04:30:30;100239.94;;;19.28;64.64
24486;BME280;13449;49.374;8.584;2022-07-29T04:32:58;100242.59;;;19.23;64.72
24486;BME280;13449;49.374;8.584;2022-07-29T04:35:24;100232.66;;;19.22;66.53
24486;BME280;13449;49.374;8.584;2022-07-29T04:37:57;100227.88;;;19.18;67.35
24486;BME280;13449;49.374;8.584;2022-07-29T04:40:23;100234.75;;;19.15;67.25
24486;BME280;13449;49.374;8.584;2022-07-29T04:42:50;100235.72;;;19.09;68.36
24486;BME280;13449;49.374;8.584;2022-07-29T04:45:19;100227.59;;;19.03;69.28
24486;BME280;13449;49.374;8.584;2022-07-29T04:47:48;100235.16;;;19.07;69.23
24486;BME280;13449;49.374;8.584;2022-07-29T04:50:15;100238.97;;;19.06;69.76
24486;BME280;13449;49.374;8.584;2022-07-29T04:52:42;100245.19;;;19.13;70.23
24486;BME280;13449;49.374;8.584;2022-07-29T04:55:08;100234.97;;;19.14;71.34
24486;BME280;13449;49.374;8.584;2022-07-29T04:57:38;100245.63;;;19.22;71.18
24486;BME280;13449;49.374;8.584;2022-07-29T05:00:06;100234.06;;;19.25;71.02
24486;BME280;13449;49.374;8.584;2022-07-29T05:02:32;100235.84;;;19.31;71.12
24486;BME280;13449;49.374;8.584;2022-07-29T05:04:59;100230.16;;;19.38;72.05
24486;BME280;13449;49.374;8.584;2022-07-29T05:07:26;100230.75;;;19.40;72.28
24486;BME280;13449;49.374;8.584;2022-07-29T05:09:52;100242.44;;;19.42;71.30
24486;BME280;13449;49.374;8.584;2022-07-29T05:12:19;100243.13;;;19.49;71.54
24486;BME280;13449;49.374;8.584;2022-07-29T05:14:45;100251.75;;;19.52;70.94
24486;BME280;13449;49.374;8.584;2022-07-29T05:17:12;100250.50;;;19.60;71.12
24486;BME280;13449;49.374;8.584;2022-07-29T05:19:38;100249.47;;;19.66;70.57
24486;BME280;13449;49.374;8.584;2022-07-29T05:22:05;100252.34;;;19.71;69.85
24486;BME280;13449;49.374;8.584;2022-07-29T05:24:31;100249.50;;;19.83;69.39
24486;BME280;13449;49.374;8.584;2022-07-29T05:26:58;100268.28;;;19.97;67.09
24486;BME280;13449;49.374;8.584;2022-07-29T05:29:24;100252.47;;;20.14;67.82
24486;BME280;13449;49.374;8.584;2022-07-29T05:32:10;100250.56;;;20.32;67.88
24486;BME280;13449;49.374;8.584;2022-07-29T05:34:38;100246.88;;;20.48;68.75
24486;BME280;13449;49.374;8.584;2022-07-29T05:37:16;100241.53;;;20.63;69.28
24486;BME280;13449;49.374;8.584;2022-07-29T05:39:43;100266.09;;;20.76;65.02
24486;BME280;13449;49.374;8.584;2022-07-29T05:42:14;100260.16;;;20.89;65.60
24486;BME280;13449;49.374;8.584;2022-07-29T05:44:41;100263.38;;;21.03;65.10
24486;BME280;13449;49.374;8.584;2022-07-29T05:47:08;100261.06;;;21.16;64.32
24486;BME280;13449;49.374;8.584;2022-07-29T05:49:37;100245.75;;;21.41;68.44
24486;BME280;13449;49.374;8.584;2022-07-29T05:52:04;100249.50;;;21.51;67.99
24486;BME280;13449;49.374;8.584;2022-07-29T05:54:31;100263.84;;;21.75;67.35
24486;BME280;13449;49.374;8.584;2022-07-29T05:56:58;100282.78;;;21.83;63.57
24486;BME280;13449;49.374;8.584;2022-07-29T05:59:24;100283.78;;;21.99;64.23
24486;BME280;13449;49.374;8.584;2022-07-29T06:01:55;100267.53;;;22.17;65.31
24486;BME280;13449;49.374;8.584;2022-07-29T06:04:23;100283.69;;;22.26;63.72
24486;BME280;13449;49.374;8.584;2022-07-29T06:06:49;100278.44;;;22.29;64.11
24486;BME280;13449;49.374;8.584;2022-07-29T06:09:18;100268.78;;;22.37;66.02
24486;BME280;13449;49.374;8.584;2022-07-29T06:11:45;100305.25;;;22.50;61.42
24486;BME280;13449;49.374;8.584;2022-07-29T06:14:12;100284.78;;;22.67;64.57
24486;BME280;13449;49.374;8.584;2022-07-29T06:16:42;100300.44;;;22.78;61.96
24486;BME280;13449;49.374;8.584;2022-07-29T06:19:09;100313.88;;;23.01;60.62
24486;BME280;13449;49.374;8.584;2022-07-29T06:21:35;100330.91;;;23.15;59.08
24486;BME280;13449;49.374;8.584;2022-07-29T06:24:07;100332.34;;;23.32;58.52
24486;BME280;13449;49.374;8.584;2022-07-29T06:26:33;100321.53;;;23.41;58.52
24486;BME280;13449;49.374;8.584;2022-07-29T06:29:05;100302.94;;;23.67;59.68
24486;BME280;13449;49.374;8.584;2022-07-29T06:31:33;100342.22;;;23.70;56.84
24486;BME280;13449;49.374;8.584;2022-07-29T06:34:04;100333.31;;;23.78;56.78
24486;BME280;13449;49.374;8.584;2022-07-29T06:36:35;100347.28;;;23.98;56.95
24486;BME280;13449;49.374;8.584;2022-07-29T06:39:08;100335.03;;;24.20;57.19
24486;BME280;13449;49.374;8.584;2022-07-29T06:41:36;100327.50;;;24.35;57.93
24486;BME280;13449;49.374;8.584;2022-07-29T06:44:03;100323.63;;;24.36;58.35
24486;BME280;13449;49.374;8.584;2022-07-29T06:46:30;100314.97;;;24.23;58.68
24486;BME280;13449;49.374;8.584;2022-07-29T06:48:57;100334.47;;;24.13;57.52
24486;BME280;13449;49.374;8.584;2022-07-29T06:51:28;100319.97;;;24.11;58.80
24486;BME280;13449;49.374;8.584;2022-07-29T06:53:54;100333.91;;;24.00;58.34
24486;BME280;13449;49.374;8.584;2022-07-29T06:56:33;100308.81;;;23.90;60.38
24486;BME280;13449;49.374;8.584;2022-07-29T06:59:06;100336.41;;;23.77;58.44
24486;BME280;13449;49.374;8.584;2022-07-29T07:01:33;100349.50;;;23.86;57.09
24486;BME280;13449;49.374;8.584;2022-07-29T07:04:02;100337.78;;;23.74;58.35
24486;BME280;13449;49.374;8.584;2022-07-29T07:06:29;100331.09;;;23.65;58.76
24486;BME280;13449;49.374;8.584;2022-07-29T07:08:55;100335.00;;;23.69;58.89
24486;BME280;13449;49.374;8.584;2022-07-29T07:11:22;100336.13;;;23.93;59.96
24486;BME280;13449;49.374;8.584;2022-07-29T07:13:48;100356.72;;;23.92;57.55
24486;BME280;13449;49.374;8.584;2022-07-29T07:16:15;100356.19;;;23.95;57.55
24486;BME280;13449;49.374;8.584;2022-07-29T07:18:44;100357.84;;;23.91;57.36
24486;BME280;13449;49.374;8.584;2022-07-29T07:21:11;100321.06;;;24.04;59.09
24486;BME280;13449;49.374;8.584;2022-07-29T07:23:44;100347.31;;;24.29;58.24
24486;BME280;13449;49.374;8.584;2022-07-29T07:26:13;100374.31;;;24.13;56.42
24486;BME280;13449;49.374;8.584;2022-07-29T07:28:40;100341.69;;;24.03;58.57
24486;BME280;13449;49.374;8.584;2022-07-29T07:31:06;100344.47;;;24.03;58.58
24486;BME280;13449;49.374;8.584;2022-07-29T07:33:32;100328.91;;;24.02;60.10
24486;BME280;13449;49.374;8.584;2022-07-29T07:35:59;100353.94;;;24.07;57.98
24486;BME280;13449;49.374;8.584;2022-07-29T07:38:28;100355.63;;;24.64;58.30
24486;BME280;13449;49.374;8.584;2022-07-29T07:40:54;100335.47;;;24.97;59.32
24486;BME280;13449;49.374;8.584;2022-07-29T07:43:21;100351.63;;;25.11;58.33
24486;BME280;13449;49.374;8.584;2022-07-29T07:45:48;100347.59;;;25.32;58.17
24486;BME280;13449;49.374;8.584;2022-07-29T07:48:16;100385.56;;;25.33;54.76
24486;BME280;13449;49.374;8.584;2022-07-29T07:50:47;100386.78;;;25.01;54.37
24486;BME280;13449;49.374;8.584;2022-07-29T07:53:17;100357.56;;;24.84;55.87
24486;BME280;13449;49.374;8.584;2022-07-29T07:55:46;100369.56;;;24.89;54.90
24486;BME280;13449;49.374;8.584;2022-07-29T07:58:34;100367.53;;;25.05;55.91
24486;BME280;13449;49.374;8.584;2022-07-29T08:01:02;100357.59;;;25.43;56.54
24486;BME280;13449;49.374;8.584;2022-07-29T08:03:30;100390.47;;;25.66;52.93
24486;BME280;13449;49.374;8.584;2022-07-29T08:05:59;100376.84;;;25.98;53.75
24486;BME280;13449;49.374;8.584;2022-07-29T08:08:26;100398.00;;;26.10;52.42
24486;BME280;13449;49.374;8.584;2022-07-29T08:10:55;100377.25;;;26.21;53.19
24486;BME280;13449;49.374;8.584;2022-07-29T08:13:24;100412.31;;;26.03;51.15
24486;BME280;13449;49.374;8.584;2022-07-29T08:15:53;100380.28;;;25.85;53.54
24486;BME280;13449;49.374;8.584;2022-07-29T08:18:39;100379.47;;;26.24;53.03
24486;BME280;13449;49.374;8.584;2022-07-29T08:21:09;100388.44;;;26.21;52.17
24486;BME280;13449;49.374;8.584;2022-07-29T08:23:35;100386.44;;;26.26;52.59
24486;BME280;13449;49.374;8.584;2022-07-29T08:26:13;100410.69;;;26.36;50.66
24486;BME280;13449;49.374;8.584;2022-07-29T08:28:41;100396.63;;;26.46;51.96
24486;BME280;13449;49.374;8.584;2022-07-29T08:31:12;100395.69;;;26.22;52.20
24486;BME280;13449;49.374;8.584;2022-07-29T08:33:39;100388.19;;;25.68;52.38
24486;BME280;13449;49.374;8.584;2022-07-29T08:36:09;100380.75;;;25.54;52.88
24486;BME280;13449;49.374;8.584;2022-07-29T08:38:35;100364.25;;;25.57;54.60
24486;BME280;13449;49.374;8.584;2022-07-29T08:41:02;100389.34;;;25.67;52.65
24486;BME280;13449;49.374;8.584;2022-07-29T08:43:30;100351.94;;;26.02;54.40
24486;BME280;13449;49.374;8.584;2022-07-29T08:45:56;100358.19;;;26.28;55.25
24486;BME280;13449;49.374;8.584;2022-07-29T08:48:25;100332.09;;;26.37;56.51
24486;BME280;13449;49.374;8.584;2022-07-29T08:50:56;100345.31;;;26.32;57.21
24486;BME280;13449;49.374;8.584;2022-07-29T08:53:25;100343.25;;;26.42;57.39
24486;BME280;13449;49.374;8.584;2022-07-29T08:55:53;100353.22;;;26.54;56.33
24486;BME280;13449;49.374;8.584;2022-07-29T08:58:20;100354.47;;;26.66;56.38
24486;BME280;13449;49.374;8.584;2022-07-29T09:00:52;100337.19;;;26.59;56.81
24486;BME280;13449;49.374;8.584;2022-07-29T09:03:23;100381.66;;;26.61;53.73
24486;BME280;13449;49.374;8.584;2022-07-29T09:05:50;100351.97;;;26.94;56.07
24486;BME280;13449;49.374;8.584;2022-07-29T09:08:18;100353.72;;;26.84;55.60
24486;BME280;13449;49.374;8.584;2022-07-29T09:10:44;100383.28;;;26.38;53.76
24486;BME280;13449;49.374;8.584;2022-07-29T09:13:11;100382.44;;;26.37;53.20
24486;BME280;13449;49.374;8.584;2022-07-29T09:15:40;100375.13;;;26.70;53.61
24486;BME280;13449;49.374;8.584;2022-07-29T09:18:07;100346.19;;;27.09;56.04
24486;BME280;13449;49.374;8.584;2022-07-29T09:20:51;100363.50;;;27.11;54.42
24486;BME280;13449;49.374;8.584;2022-07-29T09:23:36;100371.34;;;26.85;54.29
24486;BME280;13449;49.374;8.584;2022-07-29T09:26:05;100371.94;;;27.29;53.69
24486;BME280;13449;49.374;8.584;2022-07-29T09:28:31;100404.28;;;27.46;51.91
24486;BME280;13449;49.374;8.584;2022-07-29T09:30:58;100403.22;;;27.60;52.64
24486;BME280;13449;49.374;8.584;2022-07-29T09:33:32;100436.94;;;27.55;49.92
24486;BME280;13449;49.374;8.584;2022-07-29T09:36:06;100404.88;;;27.85;51.21
24486;BME280;13449;49.374;8.584;2022-07-29T09:38:33;100383.63;;;27.79;53.27
24486;BME280;13449;49.374;8.584;2022-07-29T09:41:03;100485.78;;;27.20;46.02
24486;BME280;13449;49.374;8.584;2022-07-29T09:43:34;100439.66;;;27.36;48.75
24486;BME280;13449;49.374;8.584;2022-07-29T09:46:11;100422.66;;;27.75;50.44
24486;BME280;13449;49.374;8.584;2022-07-29T09:48:38;100389.59;;;28.15;52.58
24486;BME280;13449;49.374;8.584;2022-07-29T09:51:18;100431.75;;;27.86;49.32
24486;BME280;13449;49.374;8.584;2022-07-29T09:53:52;100415.84;;;27.81;49.28
24486;BME280;13449;49.374;8.584;2022-07-29T09:56:19;100427.22;;;28.09;49.34
24486;BME280;13449;49.374;8.584;2022-07-29T09:58:46;100405.91;;;28.45;51.09
24486;BME280;13449;49.374;8.584;2022-07-29T10:01:12;100486.69;;;28.29;45.32
24486;BME280;13449;49.374;8.584;2022-07-29T10:03:51;100420.81;;;28.59;49.85
24486;BME280;13449;49.374;8.584;2022-07-29T10:06:18;100450.09;;;28.53;47.84
24486;BME280;13449;49.374;8.584;2022-07-29T10:08:44;100485.53;;;28.49;44.66
24486;BME280;13449;49.374;8.584;2022-07-29T10:11:20;100486.13;;;28.46;44.13
24486;BME280;13449;49.374;8.584;2022-07-29T10:13:48;100481.50;;;28.37;44.77
24486;BME280;13449;49.374;8.584;2022-07-29T10:16:15;100423.81;;;28.49;48.08
24486;BME280;13449;49.374;8.584;2022-07-29T10:18:44;100478.94;;;28.40;44.67
24486;BME280;13449;49.374;8.584;2022-07-29T10:21:10;100458.28;;;28.50;46.29
24486;BME280;13449;49.374;8.584;2022-07-29T10:23:58;100477.81;;;28.41;44.79
24486;BME280;13449;49.374;8.584;2022-07-29T10:26:27;100471.41;;;28.54;44.63
24486;BME280;13449;49.374;8.584;2022-07-29T10:28:55;100471.44;;;28.36;44.13
24486;BME280;13449;49.374;8.584;2022-07-29T10:31:30;100389.84;;;28.97;48.59
24486;BME280;13449;49.374;8.584;2022-07-29T10:34:57;100411.09;;;29.30;46.17
24486;BME280;13449;49.374;8.584;2022-07-29T10:37:43;100421.50;;;29.57;44.93
24486;BME280;13449;49.374;8.584;2022-07-29T10:40:39;100416.28;;;29.64;46.68
24486;BME280;13449;49.374;8.584;2022-07-29T10:43:29;100441.50;;;29.42;44.67
24486;BME280;13449;49.374;8.584;2022-07-29T10:46:00;100447.50;;;29.62;44.90
24486;BME280;13449;49.374;8.584;2022-07-29T10:48:27;100480.41;;;29.48;41.61
24486;BME280;13449;49.374;8.584;2022-07-29T10:51:00;100488.91;;;29.16;42.22
24486;BME280;13449;49.374;8.584;2022-07-29T10:53:49;100480.84;;;28.96;42.04
24486;BME280;13449;49.374;8.584;2022-07-29T10:56:26;100475.16;;;29.14;41.96
24486;BME280;13449;49.374;8.584;2022-07-29T11:02:00;100439.00;;;29.54;43.13
24486;BME280;13449;49.374;8.584;2022-07-29T11:07:15;100443.88;;;29.75;43.08
24486;BME280;13449;49.374;8.584;2022-07-29T11:09:45;100429.06;;;29.97;43.40
24486;BME280;13449;49.374;8.584;2022-07-29T11:15:05;100472.41;;;29.69;41.01
24486;BME280;13449;49.374;8.584;2022-07-29T11:20:47;100452.41;;;29.84;41.90
24486;BME280;13449;49.374;8.584;2022-07-29T11:26:17;100475.34;;;29.91;39.39
24486;BME280;13449;49.374;8.584;2022-07-29T11:39:34;100452.66;;;30.23;39.66
24486;BME280;13449;49.374;8.584;2022-07-29T11:47:58;100469.28;;;29.98;39.43
24486;BME280;13449;49.374;8.584;2022-07-29T11:50:44;100441.00;;;30.16;40.51
24486;BME280;13449;49.374;8.584;2022-07-29T11:53:13;100438.50;;;30.15;41.36
24486;BME280;13449;49.374;8.584;2022-07-29T11:55:41;100427.44;;;30.18;41.65
24486;BME280;13449;49.374;8.584;2022-07-29T11:58:21;100429.63;;;30.21;40.43
24486;BME280;13449;49.374;8.584;2022-07-29T12:00:54;100438.81;;;30.13;39.65
24486;BME280;13449;49.374;8.584;2022-07-29T12:03:27;100429.94;;;30.20;39.97
24486;BME280;13449;49.374;8.584;2022-07-29T12:06:04;100450.41;;;29.85;39.76
24486;BME280;13449;49.374;8.584;2022-07-29T12:08:42;100446.34;;;29.77;39.99
24486;BME280;13449;49.374;8.584;2022-07-29T12:11:17;100433.75;;;29.88;40.16
24486;BME280;13449;49.374;8.584;2022-07-29T12:13:49;100435.72;;;30.01;38.99
24486;BME280;13449;49.374;8.584;2022-07-29T12:16:16;100440.63;;;29.96;39.22
24486;BME280;13449;49.374;8.584;2022-07-29T12:19:04;100434.78;;;29.92;40.39
24486;BME280;13449;49.374;8.584;2022-07-29T12:21:48;100430.00;;;29.93;39.94
24486;BME280;13449;49.374;8.584;2022-07-29T12:24:22;100429.16;;;29.92;39.62
24486;BME280;13449;49.374;8.584;2022-07-29T12:26:57;100428.31;;;30.05;39.05
24486;BME280;13449;49.374;8.584;2022-07-29T12:29:24;100424.66;;;30.05;39.25
24486;BME280;13449;49.374;8.584;2022-07-29T12:32:03;100412.56;;;30.18;39.64
24486;BME280;13449;49.374;8.584;2022-07-29T12:34:44;100419.97;;;30.36;38.72
24486;BME280;13449;49.374;8.584;2022-07-29T12:37:11;100427.16;;;30.42;39.26
24486;BME280;13449;49.374;8.584;2022-07-29T12:39:38;100424.72;;;30.49;39.37
24486;BME280;13449;49.374;8.584;2022-07-29T12:42:12;100404.91;;;30.54;40.31
24486;BME280;13449;49.374;8.584;2022-07-29T12:44:50;100417.34;;;30.40;38.51
24486;BME280;13449;49.374;8.584;2022-07-29T12:47:19;100397.41;;;30.50;40.21
24486;BME280;13449;49.374;8.584;2022-07-29T12:49:47;100445.53;;;30.26;37.57
24486;BME280;13449;49.374;8.584;2022-07-29T12:52:31;100438.31;;;30.34;37.19
24486;BME280;13449;49.374;8.584;2022-07-29T12:55:00;100411.53;;;30.36;38.74
24486;BME280;13449;49.374;8.584;2022-07-29T12:57:27;100411.81;;;30.12;38.88
24486;BME280;13449;49.374;8.584;2022-07-29T13:00:07;100418.09;;;30.09;38.73
24486;BME280;13449;49.374;8.584;2022-07-29T13:02:38;100422.81;;;30.00;38.00
24486;BME280;13449;49.374;8.584;2022-07-29T13:05:06;100390.44;;;29.89;40.71
24486;BME280;13449;49.374;8.584;2022-07-29T13:07:36;100401.69;;;29.75;38.70
24486;BME280;13449;49.374;8.584;2022-07-29T13:10:21;100404.63;;;29.57;37.70
24486;BME280;13449;49.374;8.584;2022-07-29T13:13:05;100390.50;;;29.48;39.91
24486;BME280;13449;49.374;8.584;2022-07-29T13:15:32;100409.19;;;29.12;39.46
24486;BME280;13449;49.374;8.584;2022-07-29T13:17:59;100386.69;;;28.98;39.71
24486;BME280;13449;49.374;8.584;2022-07-29T13:20:28;100379.75;;;28.96;40.44
24486;BME280;13449;49.374;8.584;2022-07-29T13:23:01;100387.75;;;28.89;39.86
24486;BME280;13449;49.374;8.584;2022-07-29T13:25:31;100377.84;;;28.77;40.79
24486;BME280;13449;49.374;8.584;2022-07-29T13:27:59;100362.69;;;28.78;42.68
24486;BME280;13449;49.374;8.584;2022-07-29T13:30:25;100394.31;;;28.65;40.19
24486;BME280;13449;49.374;8.584;2022-07-29T13:32:54;100399.41;;;28.63;39.33
24486;BME280;13449;49.374;8.584;2022-07-29T13:35:21;100390.13;;;28.49;41.41
24486;BME280;13449;49.374;8.584;2022-07-29T13:37:48;100389.59;;;28.47;40.48
24486;BME280;13449;49.374;8.584;2022-07-29T13:40:19;100340.63;;;28.40;43.32
24486;BME280;13449;49.374;8.584;2022-07-29T13:42:47;100360.44;;;28.29;41.98
24486;BME280;13449;49.374;8.584;2022-07-29T13:45:14;100375.91;;;28.27;40.17
24486;BME280;13449;49.374;8.584;2022-07-29T13:47:41;100348.69;;;28.27;42.72
24486;BME280;13449;49.374;8.584;2022-07-29T13:50:14;100328.75;;;28.29;43.27
24486;BME280;13449;49.374;8.584;2022-07-29T13:52:40;100325.41;;;28.27;43.79
24486;BME280;13449;49.374;8.584;2022-07-29T13:55:10;100312.97;;;28.33;43.81